createdAt,value
2018-12-21T00:00:52.610Z,7.80
2018-12-21T00:05:55.181Z,8.00
2018-12-21T00:10:58.010Z,7.70
2018-12-21T00:16:00.573Z,7.60
2018-12-21T00:21:03.690Z,7.50
2018-12-21T00:26:09.639Z,7.60
2018-12-21T00:31:19.266Z,7.60
2018-12-21T00:36:27.789Z,7.70
2018-12-21T00:41:29.925Z,7.70
2018-12-21T00:46:33.253Z,7.70
2018-12-21T00:51:37.614Z,7.80
2018-12-21T00:56:40.722Z,7.80
2018-12-21T01:01:43.295Z,7.80
2018-12-21T01:06:46.557Z,7.80
2018-12-21T01:11:49.129Z,7.80
2018-12-21T01:16:51.746Z,7.90
2018-12-21T01:21:54.328Z,8.00
2018-12-21T01:26:57.527Z,8.00
2018-12-21T01:32:00.337Z,8.30
2018-12-21T01:37:03.352Z,8.40
2018-12-21T01:42:06.733Z,8.30
2018-12-21T01:47:09.311Z,8.40
2018-12-21T01:52:12.475Z,8.60
2018-12-21T01:57:15.061Z,8.50
2018-12-21T02:02:17.636Z,8.50
2018-12-21T02:07:21.325Z,8.50
2018-12-21T02:12:24.996Z,8.10
2018-12-21T02:17:28.114Z,8.10
2018-12-21T02:22:31.389Z,8.30
2018-12-21T02:27:34.209Z,8.50
2018-12-21T02:32:37.700Z,8.60
2018-12-21T02:37:41.087Z,8.50
2018-12-21T02:42:43.922Z,8.50
2018-12-21T02:47:46.498Z,8.50
2018-12-21T02:52:49.072Z,8.40
2018-12-21T02:57:52.302Z,8.40
2018-12-21T03:02:54.929Z,8.30
2018-12-21T03:07:57.491Z,8.10
2018-12-21T03:13:00.647Z,8.20
2018-12-21T03:18:03.601Z,8.20
2018-12-21T03:23:08.362Z,7.90
2018-12-21T03:28:11.009Z,7.70
2018-12-21T03:33:14.223Z,7.60
2018-12-21T03:38:17.237Z,7.50
2018-12-21T03:43:20.329Z,7.70
2018-12-21T03:48:23.358Z,7.70
2018-12-21T03:53:28.148Z,7.70
2018-12-21T03:58:31.762Z,7.60
2018-12-21T04:03:34.349Z,7.70
2018-12-21T04:08:36.955Z,7.70
2018-12-21T04:13:39.524Z,7.70
2018-12-21T04:18:43.405Z,7.70
2018-12-21T04:23:48.762Z,7.80
2018-12-21T04:28:51.976Z,7.90
2018-12-21T04:33:54.839Z,8.00
2018-12-21T04:38:57.434Z,8.00
2018-12-21T04:44:00.001Z,8.20
2018-12-21T04:49:04.450Z,8.40
2018-12-21T04:54:07.022Z,8.50
2018-12-21T04:59:09.866Z,8.50
2018-12-21T05:04:20.089Z,8.70
2018-12-21T05:09:19.965Z,8.80
2018-12-21T05:14:25.158Z,8.90
2018-12-21T05:19:29.402Z,8.90
2018-12-21T05:24:31.990Z,8.90
2018-12-21T05:29:34.608Z,8.80
2018-12-21T05:34:37.178Z,8.70
2018-12-21T05:39:40.856Z,8.40
2018-12-21T05:44:44.741Z,8.30
2018-12-21T05:49:47.373Z,8.10
2018-12-21T05:54:49.962Z,8.00
2018-12-21T05:59:52.541Z,7.90
2018-12-21T06:04:56.222Z,7.80
2018-12-21T06:09:59.364Z,7.50
2018-12-21T06:15:03.549Z,7.70
2018-12-21T06:20:06.190Z,7.70
2018-12-21T06:25:08.885Z,7.90
2018-12-21T06:30:12.085Z,8.00
2018-12-21T06:35:15.153Z,8.10
2018-12-21T06:40:17.725Z,8.00
2018-12-21T06:45:20.331Z,7.90
2018-12-21T06:50:23.214Z,7.80
2018-12-21T06:55:26.333Z,7.80
2018-12-21T07:00:28.909Z,7.70
2018-12-21T07:05:31.933Z,8.00
2018-12-21T07:10:35.090Z,7.80
2018-12-21T07:15:39.155Z,7.60
2018-12-21T07:20:41.726Z,7.50
2018-12-21T07:25:44.328Z,7.60
2018-12-21T07:30:46.920Z,7.80
2018-12-21T07:35:49.509Z,8.00
2018-12-21T07:40:52.440Z,8.20
2018-12-21T07:45:55.140Z,7.90
2018-12-21T07:50:58.502Z,7.90
2018-12-21T07:56:01.679Z,7.90
2018-12-21T08:01:04.267Z,7.90
2018-12-21T08:06:06.840Z,8.00
2018-12-21T08:11:10.173Z,8.00
2018-12-21T08:16:12.765Z,7.90
2018-12-21T08:21:15.934Z,8.10
2018-12-21T08:26:18.687Z,8.30
2018-12-21T08:31:21.261Z,8.50
2018-12-21T08:36:23.842Z,8.30
2018-12-21T08:41:26.420Z,8.20
2018-12-21T08:46:28.981Z,8.10
2018-12-21T08:51:31.555Z,7.60
2018-12-21T08:56:34.151Z,7.50
2018-12-21T09:01:37.334Z,7.40
2018-12-21T09:06:40.440Z,7.30
2018-12-21T09:11:43.042Z,7.30
2018-12-21T09:16:45.612Z,7.20
2018-12-21T09:21:48.444Z,7.40
2018-12-21T09:26:51.609Z,7.50
2018-12-21T09:31:54.863Z,7.40
2018-12-21T09:36:57.464Z,7.50
2018-12-21T09:42:00.752Z,7.50
2018-12-21T09:47:03.629Z,7.50
2018-12-21T09:52:12.866Z,7.60
2018-12-21T09:57:17.137Z,7.70
2018-12-21T10:02:20.122Z,7.50
2018-12-21T10:07:27.718Z,7.60
2018-12-21T10:12:29.725Z,7.50
2018-12-21T10:17:34.519Z,7.60
2018-12-21T10:22:37.418Z,7.70
2018-12-21T10:27:40.058Z,7.80
2018-12-21T10:32:42.658Z,7.80
2018-12-21T10:37:45.249Z,7.90
2018-12-21T10:42:47.972Z,8.20
2018-12-21T10:47:50.813Z,8.20
2018-12-21T10:52:53.558Z,8.00
2018-12-21T10:57:56.649Z,8.00
2018-12-21T11:02:59.666Z,8.00
2018-12-21T11:08:02.519Z,8.20
2018-12-21T11:13:05.965Z,8.00
2018-12-21T11:18:08.564Z,7.70
2018-12-21T11:23:11.153Z,7.50
2018-12-21T11:28:13.744Z,7.40
2018-12-21T11:33:16.320Z,7.40
2018-12-21T11:38:21.476Z,7.50
2018-12-21T11:43:24.074Z,7.60
2018-12-21T11:48:27.007Z,8.00
2018-12-21T11:53:29.861Z,8.10
2018-12-21T11:58:32.490Z,8.10
2018-12-21T12:03:37.936Z,8.10
2018-12-21T12:08:40.816Z,8.10
2018-12-21T12:13:43.850Z,7.90
2018-12-21T12:18:46.430Z,8.10
2018-12-21T12:23:49.042Z,8.10
2018-12-21T12:28:52.187Z,8.10
2018-12-21T12:33:54.762Z,8.00
2018-12-21T12:38:57.350Z,8.20
2018-12-21T12:44:03.111Z,8.40
2018-12-21T12:54:15.030Z,8.70
2018-12-21T12:59:17.610Z,8.40
2018-12-21T13:04:22.386Z,8.30
2018-12-21T13:09:25.538Z,8.20
2018-12-21T13:14:28.246Z,8.40
2018-12-21T13:19:30.826Z,8.40
2018-12-21T13:24:34.239Z,8.30
2018-12-21T13:29:37.151Z,8.10
2018-12-21T13:34:40.474Z,8.00
2018-12-21T13:39:43.617Z,7.90
2018-12-21T13:44:46.217Z,7.90
2018-12-21T13:49:48.826Z,8.00
2018-12-21T13:54:51.707Z,8.20
2018-12-21T13:59:54.374Z,7.70
2018-12-21T14:04:56.991Z,7.80
2018-12-21T14:09:59.591Z,8.00
2018-12-21T14:15:02.442Z,8.00
2018-12-21T14:20:08.203Z,7.90
2018-12-21T14:25:11.390Z,7.80
2018-12-21T14:30:13.994Z,7.80
2018-12-21T14:35:16.609Z,7.80
2018-12-21T14:40:19.182Z,7.90
2018-12-21T14:45:21.799Z,7.80
2018-12-21T14:50:24.709Z,7.70
2018-12-21T15:00:44.326Z,7.80
2018-12-21T15:05:46.934Z,7.70
2018-12-21T15:10:49.546Z,7.60
2018-12-21T15:15:52.113Z,7.90
2018-12-21T15:20:54.727Z,8.00
2018-12-21T15:31:06.144Z,8.00
2018-12-21T15:36:08.748Z,8.00
2018-12-21T15:41:12.067Z,8.00
2018-12-21T15:46:14.668Z,7.80
2018-12-21T15:51:17.265Z,8.20
2018-12-21T15:56:19.919Z,8.30
2018-12-21T16:01:23.056Z,8.10
2018-12-21T16:06:26.146Z,8.20
2018-12-21T16:11:29.017Z,8.20
2018-12-21T16:16:31.593Z,8.30
2018-12-21T16:21:34.163Z,8.20
2018-12-21T16:26:40.175Z,8.50
2018-12-21T16:31:45.597Z,8.30
2018-12-21T16:36:48.853Z,8.40
2018-12-21T16:41:51.508Z,8.40
2018-12-21T16:46:56.159Z,8.50
2018-12-21T16:51:58.774Z,8.50
2018-12-21T16:57:01.372Z,8.60
2018-12-21T17:02:04.210Z,8.60
2018-12-21T17:07:06.824Z,8.80
2018-12-21T17:12:09.736Z,8.70
2018-12-21T17:17:12.323Z,8.80
2018-12-21T17:22:17.545Z,8.90
2018-12-21T17:27:20.140Z,8.80
2018-12-21T17:32:24.555Z,8.90
2018-12-21T17:37:27.141Z,8.90
2018-12-21T17:42:30.249Z,8.90
2018-12-21T17:47:36.226Z,9.00
2018-12-21T17:52:40.066Z,9.00
2018-12-21T17:57:42.639Z,9.00
2018-12-21T18:02:45.212Z,9.10
2018-12-21T18:07:48.904Z,9.00
2018-12-21T18:12:51.526Z,9.00
2018-12-21T18:17:54.120Z,8.80
2018-12-21T18:22:57.021Z,8.80
2018-12-21T18:27:59.671Z,8.80
2018-12-21T18:33:10.307Z,8.80
2018-12-21T18:38:07.133Z,8.80
2018-12-21T18:43:10.160Z,8.80
2018-12-21T18:48:12.773Z,8.80
2018-12-21T18:53:15.797Z,8.90
2018-12-21T18:58:19.638Z,8.90
2018-12-21T19:03:22.229Z,9.00
2018-12-21T19:08:25.752Z,9.00
2018-12-21T19:13:28.360Z,9.00
2018-12-21T19:18:30.936Z,9.10
2018-12-21T19:23:34.910Z,9.10
2018-12-21T19:28:37.482Z,9.20
2018-12-21T19:33:40.386Z,9.20
2018-12-21T19:38:42.948Z,9.10
2018-12-21T19:43:45.989Z,9.10
2018-12-21T19:48:49.126Z,9.10
2018-12-21T19:53:51.751Z,9.10
2018-12-21T19:58:55.183Z,9.10
2018-12-21T20:03:57.754Z,9.10
2018-12-21T20:09:00.328Z,9.10
2018-12-21T20:14:02.887Z,9.20
2018-12-21T20:19:05.454Z,9.20
2018-12-21T20:24:08.026Z,9.20
2018-12-21T20:29:10.631Z,9.20
2018-12-21T20:34:14.095Z,9.20
2018-12-21T20:39:17.302Z,9.30
2018-12-21T20:44:19.898Z,9.10
2018-12-21T20:49:22.545Z,9.30
2018-12-21T20:54:25.604Z,9.30
2018-12-21T20:59:28.219Z,9.30
2018-12-21T21:04:30.883Z,9.40
2018-12-21T21:09:33.545Z,9.50
2018-12-21T21:14:36.206Z,9.40
2018-12-21T21:19:38.868Z,9.30
2018-12-21T21:24:42.077Z,9.30
2018-12-21T21:29:44.740Z,9.40
2018-12-21T21:34:47.488Z,9.30
2018-12-21T21:39:50.122Z,9.40
2018-12-21T21:44:53.506Z,9.40
2018-12-21T21:49:56.201Z,9.40
2018-12-21T21:54:58.998Z,9.50
2018-12-21T22:00:01.661Z,9.60
2018-12-21T22:05:04.466Z,9.70
2018-12-21T22:10:08.620Z,9.60
2018-12-21T22:15:11.243Z,9.60
2018-12-21T22:20:14.349Z,9.60
2018-12-21T22:25:17.046Z,9.70
2018-12-21T22:30:20.416Z,9.70
2018-12-21T22:35:23.023Z,9.70
2018-12-21T22:40:25.617Z,9.70
2018-12-21T22:45:28.514Z,9.70
2018-12-21T22:50:31.372Z,9.80
2018-12-21T22:55:33.967Z,9.80
2018-12-21T23:00:37.994Z,10.00
2018-12-21T23:05:41.370Z,10.00
2018-12-21T23:10:43.987Z,10.10
2018-12-21T23:15:48.754Z,10.10
2018-12-21T23:20:51.279Z,10.20
2018-12-21T23:25:53.891Z,10.40
2018-12-21T23:30:56.505Z,10.60
2018-12-21T23:36:01.023Z,10.60
2018-12-21T23:41:03.606Z,10.80
2018-12-21T23:46:06.743Z,10.90
2018-12-21T23:56:12.332Z,11.10
